sensor_id;sensor_type;location;lat;lon;timestamp;temperature;humidity
3876;DHT22;1953;51.222;6.624;2023-12-20T00:00:26;9.30;1.00
3876;DHT22;1953;51.222;6.624;2023-12-20T00:05:09;9.20;1.00
3876;DHT22;1953;51.222;6.624;2023-12-20T00:09:51;9.30;1.00
3876;DHT22;1953;51.222;6.624;2023-12-20T00:14:34;9.30;1.00
3876;DHT22;1953;51.222;6.624;2023-12-20T00:20:34;9.30;1.00
3876;DHT22;1953;51.222;6.624;2023-12-20T00:25:17;9.20;1.00
3876;DHT22;1953;51.222;6.624;2023-12-20T00:29:59;9.20;1.00
3876;DHT22;1953;51.222;6.624;2023-12-20T00:34:42;9.20;1.00
3876;DHT22;1953;51.222;6.624;2023-12-20T00:39:26;9.20;1.00
3876;DHT22;1953;51.222;6.624;2023-12-20T00:44:09;9.20;1.00
3876;DHT22;1953;51.222;6.624;2023-12-20T00:48:51;9.20;1.00
3876;DHT22;1953;51.222;6.624;2023-12-20T00:53:34;9.20;1.00
3876;DHT22;1953;51.222;6.624;2023-12-20T00:58:18;9.10;1.00
3876;DHT22;1953;51.222;6.624;2023-12-20T01:03:00;9.10;1.00
3876;DHT22;1953;51.222;6.624;2023-12-20T01:07:43;9.00;1.00
3876;DHT22;1953;51.222;6.624;2023-12-20T01:12:25;9.00;1.00
3876;DHT22;1953;51.222;6.624;2023-12-20T01:17:09;8.90;1.00
3876;DHT22;1953;51.222;6.624;2023-12-20T01:21:52;9.00;1.00
3876;DHT22;1953;51.222;6.624;2023-12-20T01:26:34;8.90;1.00
3876;DHT22;1953;51.222;6.624;2023-12-20T01:31:17;8.80;1.00
3876;DHT22;1953;51.222;6.624;2023-12-20T01:36:01;8.90;1.00
3876;DHT22;1953;51.222;6.624;2023-12-20T01:40:43;8.80;1.00
3876;DHT22;1953;51.222;6.624;2023-12-20T01:45:26;8.80;1.00
3876;DHT22;1953;51.222;6.624;2023-12-20T01:50:09;8.70;1.00
3876;DHT22;1953;51.222;6.624;2023-12-20T01:54:53;8.70;1.00
3876;DHT22;1953;51.222;6.624;2023-12-20T01:59:42;8.60;1.00
3876;DHT22;1953;51.222;6.624;2023-12-20T02:04:26;8.50;1.00
3876;DHT22;1953;51.222;6.624;2023-12-20T02:09:09;8.50;1.00
3876;DHT22;1953;51.222;6.624;2023-12-20T02:13:53;7.90;1.00
3876;DHT22;1953;51.222;6.624;2023-12-20T02:18:35;8.30;1.00
3876;DHT22;1953;51.222;6.624;2023-12-20T02:23:19;8.20;1.00
3876;DHT22;1953;51.222;6.624;2023-12-20T02:28:02;8.20;1.00
3876;DHT22;1953;51.222;6.624;2023-12-20T02:32:46;8.10;1.00
3876;DHT22;1953;51.222;6.624;2023-12-20T02:37:28;8.10;1.00
3876;DHT22;1953;51.222;6.624;2023-12-20T02:42:12;8.00;1.00
3876;DHT22;1953;51.222;6.624;2023-12-20T02:46:54;8.10;1.00
3876;DHT22;1953;51.222;6.624;2023-12-20T02:51:37;8.00;1.00
3876;DHT22;1953;51.222;6.624;2023-12-20T02:56:20;8.00;1.00
3876;DHT22;1953;51.222;6.624;2023-12-20T03:01:04;8.00;1.00
3876;DHT22;1953;51.222;6.624;2023-12-20T03:05:46;8.00;1.00
3876;DHT22;1953;51.222;6.624;2023-12-20T03:10:29;7.90;1.00
3876;DHT22;1953;51.222;6.624;2023-12-20T03:15:11;7.80;1.00
3876;DHT22;1953;51.222;6.624;2023-12-20T03:19:55;7.80;1.00
3876;DHT22;1953;51.222;6.624;2023-12-20T03:24:38;7.70;1.00
3876;DHT22;1953;51.222;6.624;2023-12-20T03:29:20;7.60;1.00
3876;DHT22;1953;51.222;6.624;2023-12-20T03:34:03;7.60;1.00
3876;DHT22;1953;51.222;6.624;2023-12-20T03:38:47;7.60;1.00
3876;DHT22;1953;51.222;6.624;2023-12-20T03:43:29;7.50;1.00
3876;DHT22;1953;51.222;6.624;2023-12-20T03:48:12;7.50;1.00
3876;DHT22;1953;51.222;6.624;2023-12-20T03:52:54;7.50;1.00
3876;DHT22;1953;51.222;6.624;2023-12-20T03:57:38;7.50;1.00
3876;DHT22;1953;51.222;6.624;2023-12-20T04:02:21;7.50;1.00
3876;DHT22;1953;51.222;6.624;2023-12-20T04:07:03;7.50;1.00
3876;DHT22;1953;51.222;6.624;2023-12-20T04:11:46;7.40;1.00
3876;DHT22;1953;51.222;6.624;2023-12-20T04:16:30;7.40;1.00
3876;DHT22;1953;51.222;6.624;2023-12-20T04:21:12;7.40;1.00
3876;DHT22;1953;51.222;6.624;2023-12-20T04:25:55;7.40;1.00
3876;DHT22;1953;51.222;6.624;2023-12-20T04:30:37;7.30;1.00
3876;DHT22;1953;51.222;6.624;2023-12-20T04:35:21;7.30;1.00
3876;DHT22;1953;51.222;6.624;2023-12-20T04:40:05;7.20;1.00
3876;DHT22;1953;51.222;6.624;2023-12-20T04:44:48;7.20;1.00
3876;DHT22;1953;51.222;6.624;2023-12-20T04:49:31;7.30;1.00
3876;DHT22;1953;51.222;6.624;2023-12-20T04:54:15;7.30;1.00
3876;DHT22;1953;51.222;6.624;2023-12-20T04:58:57;7.20;1.00
3876;DHT22;1953;51.222;6.624;2023-12-20T05:03:40;7.20;1.00
3876;DHT22;1953;51.222;6.624;2023-12-20T05:08:22;7.20;1.00
3876;DHT22;1953;51.222;6.624;2023-12-20T05:13:06;7.20;1.00
3876;DHT22;1953;51.222;6.624;2023-12-20T05:17:49;7.20;1.00
3876;DHT22;1953;51.222;6.624;2023-12-20T05:22:31;7.20;1.00
3876;DHT22;1953;51.222;6.624;2023-12-20T05:27:14;7.20;1.00
3876;DHT22;1953;51.222;6.624;2023-12-20T05:31:58;7.20;1.00
3876;DHT22;1953;51.222;6.624;2023-12-20T05:36:40;7.30;1.00
3876;DHT22;1953;51.222;6.624;2023-12-20T05:41:23;7.30;1.00
3876;DHT22;1953;51.222;6.624;2023-12-20T05:46:05;7.30;1.00
3876;DHT22;1953;51.222;6.624;2023-12-20T05:50:49;7.30;1.00
3876;DHT22;1953;51.222;6.624;2023-12-20T05:55:32;7.40;1.00
3876;DHT22;1953;51.222;6.624;2023-12-20T06:00:15;7.40;1.00
3876;DHT22;1953;51.222;6.624;2023-12-20T06:04:58;7.40;1.00
3876;DHT22;1953;51.222;6.624;2023-12-20T06:09:42;7.40;1.00
3876;DHT22;1953;51.222;6.624;2023-12-20T06:14:24;7.50;1.00
3876;DHT22;1953;51.222;6.624;2023-12-20T06:19:07;7.50;1.00
3876;DHT22;1953;51.222;6.624;2023-12-20T06:23:49;7.50;1.00
3876;DHT22;1953;51.222;6.624;2023-12-20T06:28:33;7.50;1.00
3876;DHT22;1953;51.222;6.624;2023-12-20T06:33:16;7.50;1.00
3876;DHT22;1953;51.222;6.624;2023-12-20T06:37:59;7.60;1.00
3876;DHT22;1953;51.222;6.624;2023-12-20T06:42:42;7.70;1.00
3876;DHT22;1953;51.222;6.624;2023-12-20T06:47:26;7.70;1.00
3876;DHT22;1953;51.222;6.624;2023-12-20T06:52:09;7.70;1.00
3876;DHT22;1953;51.222;6.624;2023-12-20T06:56:51;7.70;1.00
3876;DHT22;1953;51.222;6.624;2023-12-20T07:01:34;7.70;1.00
3876;DHT22;1953;51.222;6.624;2023-12-20T07:06:17;7.80;1.00
3876;DHT22;1953;51.222;6.624;2023-12-20T07:11:00;7.70;1.00
3876;DHT22;1953;51.222;6.624;2023-12-20T07:15:43;7.80;1.00
3876;DHT22;1953;51.222;6.624;2023-12-20T07:20:25;7.80;1.00
3876;DHT22;1953;51.222;6.624;2023-12-20T07:25:10;7.80;1.00
3876;DHT22;1953;51.222;6.624;2023-12-20T07:29:52;7.80;1.00
3876;DHT22;1953;51.222;6.624;2023-12-20T07:34:35;7.80;1.00
3876;DHT22;1953;51.222;6.624;2023-12-20T07:39:17;7.90;1.00
3876;DHT22;1953;51.222;6.624;2023-12-20T07:44:02;7.90;1.00
3876;DHT22;1953;51.222;6.624;2023-12-20T07:48:44;7.90;1.00
3876;DHT22;1953;51.222;6.624;2023-12-20T07:53:27;7.90;1.00
3876;DHT22;1953;51.222;6.624;2023-12-20T07:58:10;7.90;1.00
3876;DHT22;1953;51.222;6.624;2023-12-20T08:02:54;7.90;1.00
3876;DHT22;1953;51.222;6.624;2023-12-20T08:07:36;8.00;1.00
3876;DHT22;1953;51.222;6.624;2023-12-20T08:12:19;8.00;1.00
3876;DHT22;1953;51.222;6.624;2023-12-20T08:17:01;8.10;1.00
3876;DHT22;1953;51.222;6.624;2023-12-20T08:21:45;8.10;1.00
3876;DHT22;1953;51.222;6.624;2023-12-20T08:26:28;8.10;1.00
3876;DHT22;1953;51.222;6.624;2023-12-20T08:31:14;8.10;1.00
3876;DHT22;1953;51.222;6.624;2023-12-20T08:35:57;8.00;1.00
3876;DHT22;1953;51.222;6.624;2023-12-20T08:40:41;8.00;1.00
3876;DHT22;1953;51.222;6.624;2023-12-20T08:45:23;8.00;1.00
3876;DHT22;1953;51.222;6.624;2023-12-20T08:50:07;8.00;1.00
3876;DHT22;1953;51.222;6.624;2023-12-20T08:54:50;8.00;1.00
3876;DHT22;1953;51.222;6.624;2023-12-20T08:59:35;8.00;1.00
3876;DHT22;1953;51.222;6.624;2023-12-20T09:04:17;8.00;1.00
3876;DHT22;1953;51.222;6.624;2023-12-20T09:09:00;8.00;1.00
3876;DHT22;1953;51.222;6.624;2023-12-20T09:13:42;8.00;1.00
3876;DHT22;1953;51.222;6.624;2023-12-20T09:18:27;8.00;1.00
3876;DHT22;1953;51.222;6.624;2023-12-20T09:23:09;8.00;1.00
3876;DHT22;1953;51.222;6.624;2023-12-20T09:27:52;8.00;1.00
3876;DHT22;1953;51.222;6.624;2023-12-20T09:32:34;8.10;1.00
3876;DHT22;1953;51.222;6.624;2023-12-20T09:37:18;8.10;1.00
3876;DHT22;1953;51.222;6.624;2023-12-20T09:42:02;8.10;1.00
3876;DHT22;1953;51.222;6.624;2023-12-20T09:46:49;8.00;1.00
3876;DHT22;1953;51.222;6.624;2023-12-20T09:51:32;8.20;1.00
3876;DHT22;1953;51.222;6.624;2023-12-20T09:56:17;8.20;1.00
3876;DHT22;1953;51.222;6.624;2023-12-20T10:01:00;8.20;1.00
3876;DHT22;1953;51.222;6.624;2023-12-20T10:05:43;8.30;1.00
3876;DHT22;1953;51.222;6.624;2023-12-20T10:10:27;8.20;1.00
3876;DHT22;1953;51.222;6.624;2023-12-20T10:15:11;8.20;1.00
3876;DHT22;1953;51.222;6.624;2023-12-20T10:19:53;8.20;1.00
3876;DHT22;1953;51.222;6.624;2023-12-20T10:24:36;8.20;1.00
3876;DHT22;1953;51.222;6.624;2023-12-20T10:29:18;8.30;1.00
3876;DHT22;1953;51.222;6.624;2023-12-20T10:34:03;8.40;1.00
3876;DHT22;1953;51.222;6.624;2023-12-20T10:38:46;8.40;1.00
3876;DHT22;1953;51.222;6.624;2023-12-20T10:43:33;8.40;1.00
3876;DHT22;1953;51.222;6.624;2023-12-20T10:48:16;8.50;1.00
3876;DHT22;1953;51.222;6.624;2023-12-20T10:53:00;8.50;1.00
3876;DHT22;1953;51.222;6.624;2023-12-20T10:57:44;8.60;1.00
3876;DHT22;1953;51.222;6.624;2023-12-20T11:02:32;8.60;1.00
3876;DHT22;1953;51.222;6.624;2023-12-20T11:07:21;8.60;1.00
3876;DHT22;1953;51.222;6.624;2023-12-20T11:16:09;8.00;1.00
3876;DHT22;1953;51.222;6.624;2023-12-20T11:20:54;8.60;1.00
3876;DHT22;1953;51.222;6.624;2023-12-20T11:25:47;8.60;1.00
3876;DHT22;1953;51.222;6.624;2023-12-20T11:30:40;8.60;1.00
3876;DHT22;1953;51.222;6.624;2023-12-20T11:35:24;8.60;1.00
3876;DHT22;1953;51.222;6.624;2023-12-20T11:40:11;8.60;1.00
3876;DHT22;1953;51.222;6.624;2023-12-20T11:44:56;8.60;1.00
3876;DHT22;1953;51.222;6.624;2023-12-20T11:49:38;8.60;1.00
3876;DHT22;1953;51.222;6.624;2023-12-20T11:54:23;8.70;1.00
3876;DHT22;1953;51.222;6.624;2023-12-20T11:59:05;8.60;1.00
3876;DHT22;1953;51.222;6.624;2023-12-20T12:04:02;8.70;1.00
3876;DHT22;1953;51.222;6.624;2023-12-20T12:08:45;8.80;1.00
3876;DHT22;1953;51.222;6.624;2023-12-20T12:13:28;8.70;1.00
3876;DHT22;1953;51.222;6.624;2023-12-20T12:21:23;8.70;1.00
3876;DHT22;1953;51.222;6.624;2023-12-20T12:26:06;8.70;1.00
3876;DHT22;1953;51.222;6.624;2023-12-20T12:30:56;8.70;1.00
3876;DHT22;1953;51.222;6.624;2023-12-20T12:35:40;8.70;1.00
3876;DHT22;1953;51.222;6.624;2023-12-20T12:40:24;8.70;1.00
3876;DHT22;1953;51.222;6.624;2023-12-20T12:45:07;8.70;1.00
3876;DHT22;1953;51.222;6.624;2023-12-20T12:49:51;8.70;1.00
3876;DHT22;1953;51.222;6.624;2023-12-20T12:54:34;8.70;1.00
3876;DHT22;1953;51.222;6.624;2023-12-20T12:59:19;8.70;1.00
3876;DHT22;1953;51.222;6.624;2023-12-20T13:04:01;8.70;1.00
3876;DHT22;1953;51.222;6.624;2023-12-20T13:08:47;8.60;1.00
3876;DHT22;1953;51.222;6.624;2023-12-20T13:13:30;8.60;1.00
3876;DHT22;1953;51.222;6.624;2023-12-20T13:18:14;8.70;1.00
3876;DHT22;1953;51.222;6.624;2023-12-20T13:22:57;8.60;1.00
3876;DHT22;1953;51.222;6.624;2023-12-20T13:27:39;8.70;1.00
3876;DHT22;1953;51.222;6.624;2023-12-20T13:32:23;8.70;1.00
3876;DHT22;1953;51.222;6.624;2023-12-20T13:37:07;8.60;1.00
3876;DHT22;1953;51.222;6.624;2023-12-20T13:41:50;8.60;1.00
3876;DHT22;1953;51.222;6.624;2023-12-20T13:46:32;8.50;1.00
3876;DHT22;1953;51.222;6.624;2023-12-20T13:51:15;8.50;1.00
3876;DHT22;1953;51.222;6.624;2023-12-20T13:55:59;8.60;1.00
3876;DHT22;1953;51.222;6.624;2023-12-20T14:00:41;8.60;1.00
3876;DHT22;1953;51.222;6.624;2023-12-20T14:05:24;8.50;1.00
3876;DHT22;1953;51.222;6.624;2023-12-20T14:10:08;8.60;1.00
3876;DHT22;1953;51.222;6.624;2023-12-20T14:14:52;8.60;1.00
3876;DHT22;1953;51.222;6.624;2023-12-20T14:19:37;8.60;1.00
3876;DHT22;1953;51.222;6.624;2023-12-20T14:24:20;8.70;1.00
3876;DHT22;1953;51.222;6.624;2023-12-20T14:29:03;8.70;1.00
3876;DHT22;1953;51.222;6.624;2023-12-20T14:33:47;8.70;1.00
3876;DHT22;1953;51.222;6.624;2023-12-20T14:38:31;8.80;1.00
3876;DHT22;1953;51.222;6.624;2023-12-20T14:43:13;8.80;1.00
3876;DHT22;1953;51.222;6.624;2023-12-20T14:47:57;8.80;1.00
3876;DHT22;1953;51.222;6.624;2023-12-20T14:52:41;8.90;1.00
3876;DHT22;1953;51.222;6.624;2023-12-20T14:57:24;8.90;1.00
3876;DHT22;1953;51.222;6.624;2023-12-20T15:02:07;8.90;1.00
3876;DHT22;1953;51.222;6.624;2023-12-20T15:06:49;9.00;1.00
3876;DHT22;1953;51.222;6.624;2023-12-20T15:11:34;9.00;1.00
3876;DHT22;1953;51.222;6.624;2023-12-20T15:16:17;9.00;1.00
3876;DHT22;1953;51.222;6.624;2023-12-20T15:21:00;9.10;1.00
3876;DHT22;1953;51.222;6.624;2023-12-20T15:25:42;9.00;1.00
3876;DHT22;1953;51.222;6.624;2023-12-20T15:30:26;9.10;1.00
3876;DHT22;1953;51.222;6.624;2023-12-20T15:35:09;9.10;1.00
3876;DHT22;1953;51.222;6.624;2023-12-20T15:39:51;9.10;1.00
3876;DHT22;1953;51.222;6.624;2023-12-20T15:44:34;9.10;1.00
3876;DHT22;1953;51.222;6.624;2023-12-20T15:49:18;9.10;1.00
3876;DHT22;1953;51.222;6.624;2023-12-20T15:54:00;9.20;1.00
3876;DHT22;1953;51.222;6.624;2023-12-20T15:58:47;9.10;1.00
3876;DHT22;1953;51.222;6.624;2023-12-20T16:03:30;9.20;1.00
3876;DHT22;1953;51.222;6.624;2023-12-20T16:08:14;9.20;1.00
3876;DHT22;1953;51.222;6.624;2023-12-20T16:12:56;9.10;1.00
3876;DHT22;1953;51.222;6.624;2023-12-20T16:17:39;9.10;1.00
3876;DHT22;1953;51.222;6.624;2023-12-20T16:22:22;9.10;1.00
3876;DHT22;1953;51.222;6.624;2023-12-20T16:27:06;9.10;1.00
3876;DHT22;1953;51.222;6.624;2023-12-20T16:31:48;9.10;1.00
3876;DHT22;1953;51.222;6.624;2023-12-20T16:36:48;9.10;1.00
3876;DHT22;1953;51.222;6.624;2023-12-20T16:41:31;9.10;1.00
3876;DHT22;1953;51.222;6.624;2023-12-20T16:46:15;9.20;1.00
3876;DHT22;1953;51.222;6.624;2023-12-20T16:50:58;9.20;1.00
3876;DHT22;1953;51.222;6.624;2023-12-20T16:55:40;9.20;1.00
3876;DHT22;1953;51.222;6.624;2023-12-20T17:00:25;9.20;1.00
3876;DHT22;1953;51.222;6.624;2023-12-20T17:05:10;9.30;1.00
3876;DHT22;1953;51.222;6.624;2023-12-20T17:09:52;9.20;1.00
3876;DHT22;1953;51.222;6.624;2023-12-20T17:14:34;9.20;1.00
3876;DHT22;1953;51.222;6.624;2023-12-20T17:19:17;9.10;1.00
3876;DHT22;1953;51.222;6.624;2023-12-20T17:24:02;9.20;1.00
3876;DHT22;1953;51.222;6.624;2023-12-20T17:28:45;9.20;1.00
3876;DHT22;1953;51.222;6.624;2023-12-20T17:33:29;9.30;1.00
3876;DHT22;1953;51.222;6.624;2023-12-20T17:38:11;9.30;1.00
3876;DHT22;1953;51.222;6.624;2023-12-20T17:42:55;9.30;1.00
3876;DHT22;1953;51.222;6.624;2023-12-20T17:47:40;9.30;1.00
3876;DHT22;1953;51.222;6.624;2023-12-20T17:52:23;9.30;1.00
3876;DHT22;1953;51.222;6.624;2023-12-20T17:57:05;9.40;1.00
3876;DHT22;1953;51.222;6.624;2023-12-20T18:01:49;9.40;1.00
3876;DHT22;1953;51.222;6.624;2023-12-20T18:06:32;9.50;1.00
3876;DHT22;1953;51.222;6.624;2023-12-20T18:11:14;9.50;1.00
3876;DHT22;1953;51.222;6.624;2023-12-20T18:15:57;9.50;1.00
3876;DHT22;1953;51.222;6.624;2023-12-20T18:20:40;9.50;1.00
3876;DHT22;1953;51.222;6.624;2023-12-20T18:25:23;9.60;1.00
3876;DHT22;1953;51.222;6.624;2023-12-20T18:30:07;9.60;1.00
3876;DHT22;1953;51.222;6.624;2023-12-20T18:34:49;9.70;1.00
3876;DHT22;1953;51.222;6.624;2023-12-20T18:39:33;9.60;1.00
3876;DHT22;1953;51.222;6.624;2023-12-20T18:44:16;9.60;1.00
3876;DHT22;1953;51.222;6.624;2023-12-20T18:48:59;9.70;1.00
3876;DHT22;1953;51.222;6.624;2023-12-20T18:53:41;9.70;1.00
3876;DHT22;1953;51.222;6.624;2023-12-20T18:58:25;9.70;1.00
3876;DHT22;1953;51.222;6.624;2023-12-20T19:03:11;9.70;1.00
3876;DHT22;1953;51.222;6.624;2023-12-20T19:07:54;9.80;1.00
3876;DHT22;1953;51.222;6.624;2023-12-20T19:12:36;9.90;1.00
3876;DHT22;1953;51.222;6.624;2023-12-20T19:17:20;9.90;1.00
3876;DHT22;1953;51.222;6.624;2023-12-20T19:22:03;9.90;1.00
3876;DHT22;1953;51.222;6.624;2023-12-20T19:26:45;9.90;1.00
3876;DHT22;1953;51.222;6.624;2023-12-20T19:31:28;9.80;1.00
3876;DHT22;1953;51.222;6.624;2023-12-20T19:36:12;9.90;1.00
3876;DHT22;1953;51.222;6.624;2023-12-20T19:40:54;9.90;1.00
3876;DHT22;1953;51.222;6.624;2023-12-20T19:45:37;9.90;1.00
3876;DHT22;1953;51.222;6.624;2023-12-20T19:50:19;9.90;1.00
3876;DHT22;1953;51.222;6.624;2023-12-20T19:55:04;9.90;1.00
3876;DHT22;1953;51.222;6.624;2023-12-20T19:59:46;9.90;1.00
3876;DHT22;1953;51.222;6.624;2023-12-20T20:04:29;9.90;1.00
3876;DHT22;1953;51.222;6.624;2023-12-20T20:09:11;9.90;1.00
3876;DHT22;1953;51.222;6.624;2023-12-20T20:13:55;9.90;1.00
3876;DHT22;1953;51.222;6.624;2023-12-20T20:18:38;9.90;1.00
3876;DHT22;1953;51.222;6.624;2023-12-20T20:23:20;9.90;1.00
3876;DHT22;1953;51.222;6.624;2023-12-20T20:28:03;9.90;1.00
3876;DHT22;1953;51.222;6.624;2023-12-20T20:32:47;9.90;1.00
3876;DHT22;1953;51.222;6.624;2023-12-20T20:37:30;9.80;1.00
3876;DHT22;1953;51.222;6.624;2023-12-20T20:42:12;9.80;1.00
3876;DHT22;1953;51.222;6.624;2023-12-20T20:46:55;9.70;1.00
3876;DHT22;1953;51.222;6.624;2023-12-20T20:51:39;9.70;1.00
3876;DHT22;1953;51.222;6.624;2023-12-20T20:56:22;9.70;1.00
3876;DHT22;1953;51.222;6.624;2023-12-20T21:01:04;9.70;1.00
3876;DHT22;1953;51.222;6.624;2023-12-20T21:05:47;9.70;1.00
3876;DHT22;1953;51.222;6.624;2023-12-20T21:10:31;9.70;1.00
3876;DHT22;1953;51.222;6.624;2023-12-20T21:15:13;9.60;1.00
3876;DHT22;1953;51.222;6.624;2023-12-20T21:19:56;9.60;1.00
3876;DHT22;1953;51.222;6.624;2023-12-20T21:24:38;9.70;1.00
3876;DHT22;1953;51.222;6.624;2023-12-20T21:29:22;9.70;1.00
3876;DHT22;1953;51.222;6.624;2023-12-20T21:34:05;9.70;1.00
3876;DHT22;1953;51.222;6.624;2023-12-20T21:38:47;9.60;1.00
3876;DHT22;1953;51.222;6.624;2023-12-20T21:43:30;9.70;1.00
3876;DHT22;1953;51.222;6.624;2023-12-20T21:48:14;9.60;1.00
3876;DHT22;1953;51.222;6.624;2023-12-20T21:52:57;9.60;1.00
3876;DHT22;1953;51.222;6.624;2023-12-20T21:57:39;9.50;1.00
3876;DHT22;1953;51.222;6.624;2023-12-20T22:02:22;9.60;1.00
3876;DHT22;1953;51.222;6.624;2023-12-20T22:07:06;9.60;1.00
3876;DHT22;1953;51.222;6.624;2023-12-20T22:11:48;9.60;1.00
3876;DHT22;1953;51.222;6.624;2023-12-20T22:16:31;9.70;1.00
3876;DHT22;1953;51.222;6.624;2023-12-20T22:21:13;9.70;1.00
3876;DHT22;1953;51.222;6.624;2023-12-20T22:25:57;9.70;1.00
3876;DHT22;1953;51.222;6.624;2023-12-20T22:30:41;9.70;1.00
3876;DHT22;1953;51.222;6.624;2023-12-20T22:35:23;9.70;1.00
3876;DHT22;1953;51.222;6.624;2023-12-20T22:40:07;9.70;1.00
3876;DHT22;1953;51.222;6.624;2023-12-20T22:44:52;9.70;1.00
3876;DHT22;1953;51.222;6.624;2023-12-20T22:49:36;9.80;1.00
3876;DHT22;1953;51.222;6.624;2023-12-20T22:54:18;9.80;1.00
3876;DHT22;1953;51.222;6.624;2023-12-20T22:59:01;9.80;1.00
3876;DHT22;1953;51.222;6.624;2023-12-20T23:03:45;9.60;1.00
3876;DHT22;1953;51.222;6.624;2023-12-20T23:08:27;9.80;1.00
3876;DHT22;1953;51.222;6.624;2023-12-20T23:13:10;9.90;1.00
3876;DHT22;1953;51.222;6.624;2023-12-20T23:17:53;9.90;1.00
3876;DHT22;1953;51.222;6.624;2023-12-20T23:22:39;9.90;1.00
3876;DHT22;1953;51.222;6.624;2023-12-20T23:27:21;9.90;1.00
3876;DHT22;1953;51.222;6.624;2023-12-20T23:31:44;9.90;1.00
3876;DHT22;1953;51.222;6.624;2023-12-20T23:36:26;10.10;1.00
3876;DHT22;1953;51.222;6.624;2023-12-20T23:41:10;10.00;1.00
3876;DHT22;1953;51.222;6.624;2023-12-20T23:45:53;10.00;1.00
3876;DHT22;1953;51.222;6.624;2023-12-20T23:50:35;10.00;1.00
3876;DHT22;1953;51.222;6.624;2023-12-20T23:55:18;10.10;1.00
